Time;durP1;ratioP1;P1;durP2;ratioP2;P2;SDS_P1;SDS_P2;PMS_P1;PMS_P2;Temp;Humidity;BMP_temperature;BMP_pressure;BME280_temperature;BME280_humidity;BME280_pressure;Samples;Min_cycle;Max_cycle;Signal;HPM_P1;HPM_P2
2022/05/04 00:00:53;;;;;;;2.10;2.00;;;18.00;71.40;18.50;96382.00;;;;5032076;28;20716;-87
2022/05/04 00:03:21;;;;;;;1.57;1.47;;;18.00;71.70;18.50;96387.00;;;;5032555;28;20235;-87
2022/05/04 00:05:48;;;;;;;1.67;1.57;;;18.00;71.80;18.50;96383.00;;;;5018146;28;20222;-87
2022/05/04 00:08:16;;;;;;;1.87;1.53;;;18.00;71.90;18.50;96381.00;;;;5023735;28;20227;-88
2022/05/04 00:10:43;;;;;;;2.43;1.50;;;18.00;72.10;18.40;96379.00;;;;5031269;28;20253;-87
2022/05/04 00:13:10;;;;;;;1.80;1.70;;;18.00;72.30;18.40;96389.00;;;;5031888;28;20229;-87
2022/05/04 00:15:37;;;;;;;2.00;1.90;;;17.90;72.50;18.40;96380.00;;;;5031622;28;20224;-86
2022/05/04 00:18:06;;;;;;;2.00;1.90;;;17.90;72.80;18.30;96382.00;;;;5021589;28;20236;-88
2022/05/04 00:20:33;;;;;;;2.10;2.00;;;17.90;73.10;18.30;96379.00;;;;5031628;28;20244;-87
2022/05/04 00:23:00;;;;;;;1.70;1.60;;;17.80;73.30;18.30;96381.00;;;;5029040;28;20284;-87
2022/05/04 00:25:27;;;;;;;1.90;1.73;;;17.80;73.40;18.20;96379.00;;;;5030974;28;20201;-87
2022/05/04 00:27:54;;;;;;;2.17;2.07;;;17.70;73.40;18.20;96373.00;;;;5028129;28;20307;-87
2022/05/04 00:30:22;;;;;;;1.87;1.77;;;17.80;73.50;18.20;96368.00;;;;5026213;28;20280;-87
2022/05/04 00:32:49;;;;;;;1.73;1.63;;;17.70;73.50;18.10;96372.00;;;;5032605;28;20243;-87
2022/05/04 00:35:17;;;;;;;1.63;1.53;;;17.70;73.90;18.10;96367.00;;;;5032187;28;20189;-87
2022/05/04 00:37:45;;;;;;;1.97;1.87;;;17.70;74.40;18.10;96377.00;;;;5031569;28;20245;-87
2022/05/04 00:40:12;;;;;;;2.03;1.93;;;17.60;74.40;18.00;96370.00;;;;5040151;28;20243;-87
2022/05/04 00:42:40;;;;;;;2.17;2.00;;;17.60;74.30;18.00;96376.00;;;;5017929;28;20285;-87
2022/05/04 00:45:08;;;;;;;2.20;2.10;;;17.60;74.40;17.90;96380.00;;;;5012185;28;20201;-87
2022/05/04 00:47:35;;;;;;;2.40;2.20;;;17.50;74.40;17.90;96373.00;;;;5011217;28;20299;-87
2022/05/04 00:50:04;;;;;;;2.37;2.17;;;17.50;74.60;17.80;96383.00;;;;5012797;28;20217;-87
2022/05/04 00:52:35;;;;;;;2.13;2.03;;;17.40;74.00;17.80;96387.00;;;;5029352;28;20212;-87
2022/05/04 00:55:07;;;;;;;2.00;1.77;;;17.40;74.90;17.80;96386.00;;;;5031180;28;20638;-87
2022/05/04 01:00:23;;;;;;;2.40;2.20;;;17.30;75.50;17.70;96386.00;;;;5031727;28;20327;-87
2022/05/04 01:02:50;;;;;;;2.33;1.90;;;17.30;75.50;17.70;96388.00;;;;5032153;28;20267;-87
2022/05/04 01:05:17;;;;;;;1.97;1.87;;;17.30;75.60;17.70;96384.00;;;;5030077;28;20209;-87
2022/05/04 01:07:47;;;;;;;1.97;1.87;;;17.30;75.80;17.70;96393.00;;;;5030474;28;20930;-87
2022/05/04 01:10:16;;;;;;;2.13;2.03;;;17.30;76.10;17.80;96385.00;;;;5031956;28;20205;-86
2022/05/04 01:12:48;;;;;;;1.87;1.77;;;17.30;76.30;17.80;96400.00;;;;5032912;28;20202;-87
2022/05/04 01:15:15;;;;;;;2.43;2.07;;;17.30;76.40;17.80;96389.00;;;;5028820;28;20850;-87
2022/05/04 01:17:42;;;;;;;2.10;2.00;;;17.30;76.60;17.80;96388.00;;;;5022128;28;20642;-87
2022/05/04 01:20:11;;;;;;;2.20;2.10;;;17.30;76.70;17.80;96389.00;;;;5030707;28;20197;-87
2022/05/04 01:22:40;;;;;;;1.90;1.80;;;17.30;76.70;17.80;96390.00;;;;5031403;28;20201;-87
2022/05/04 01:25:09;;;;;;;2.07;1.97;;;17.30;76.80;17.80;96396.00;;;;5031001;28;20205;-87
2022/05/04 01:27:37;;;;;;;2.13;1.80;;;17.30;76.80;17.80;96391.00;;;;5030414;28;20228;-87
2022/05/04 01:30:05;;;;;;;1.83;1.73;;;17.30;76.60;17.70;96397.00;;;;5035992;28;20666;-87
2022/05/04 01:32:33;;;;;;;1.90;1.70;;;17.30;76.50;17.70;96393.00;;;;5034042;28;20197;-87
2022/05/04 01:35:00;;;;;;;2.07;1.97;;;17.20;76.50;17.70;96387.00;;;;5034095;28;20288;-87
2022/05/04 01:37:27;;;;;;;2.10;1.80;;;17.20;76.40;17.70;96389.00;;;;5031601;28;20227;-87
2022/05/04 01:39:55;;;;;;;2.20;2.10;;;17.20;76.60;17.70;96387.00;;;;5035324;28;20292;-87
2022/05/04 01:42:24;;;;;;;2.10;2.00;;;17.20;76.60;17.70;96380.00;;;;5033781;28;20651;-87
2022/05/04 01:44:52;;;;;;;2.83;2.10;;;17.20;76.50;17.60;96376.00;;;;5033284;28;20237;-87
2022/05/04 01:47:19;;;;;;;2.30;2.20;;;17.20;76.60;17.60;96377.00;;;;5029891;28;20223;-88
2022/05/04 01:49:46;;;;;;;1.90;1.80;;;17.20;76.60;17.60;96377.00;;;;5076967;22;20277;-89
2022/05/04 01:52:13;;;;;;;2.10;2.00;;;17.10;76.50;17.60;96378.00;;;;5073081;28;20655;-88
2022/05/04 01:54:40;;;;;;;2.10;1.90;;;17.20;76.30;17.60;96378.00;;;;5073522;28;20555;-89
2022/05/04 01:57:09;;;;;;;2.20;1.60;;;17.10;76.20;17.50;96376.00;;;;5072381;28;20196;-88
2022/05/04 01:59:36;;;;;;;1.77;1.67;;;17.10;76.20;17.50;96385.00;;;;5066838;28;20700;-89
2022/05/04 02:02:07;;;;;;;1.70;1.60;;;17.10;76.20;17.50;96381.00;;;;5073076;28;20196;-88
2022/05/04 02:04:35;;;;;;;2.10;2.00;;;17.00;76.10;17.50;96375.00;;;;5070639;28;20207;-89
2022/05/04 02:07:02;;;;;;;2.77;2.27;;;17.00;76.40;17.50;96380.00;;;;5068534;28;20288;-89
2022/05/04 02:09:30;;;;;;;2.20;2.10;;;18.30;78.20;17.50;96381.00;;;;5072438;28;20228;-88
2022/05/04 02:11:57;;;;;;;2.30;2.10;;;17.00;76.60;17.50;96379.00;;;;5062066;28;20203;-89
2022/05/04 02:14:26;;;;;;;2.70;2.50;;;17.00;76.80;17.50;96384.00;;;;5072596;28;20687;-89
2022/05/04 02:16:53;;;;;;;2.50;2.27;;;18.30;77.70;17.50;96374.00;;;;5068010;28;20283;-89
2022/05/04 02:19:20;;;;;;;2.53;2.43;;;17.00;76.90;17.50;96366.00;;;;5077369;28;20232;-88
2022/05/04 02:21:47;;;;;;;2.03;1.90;;;17.30;77.30;17.50;96378.00;;;;5067010;28;20288;-89
2022/05/04 02:24:14;;;;;;;2.43;2.23;;;17.30;77.30;17.50;96376.00;;;;5070629;28;20201;-89
2022/05/04 02:26:41;;;;;;;2.40;2.20;;;16.90;77.00;17.40;96386.00;;;;5057347;28;20564;-89
2022/05/04 02:29:08;;;;;;;2.60;2.40;;;16.90;77.00;17.40;96377.00;;;;5069874;28;20707;-90
2022/05/04 02:31:40;;;;;;;2.10;1.90;;;16.90;77.10;17.40;96379.00;;;;5072181;28;20200;-89
2022/05/04 02:34:07;;;;;;;2.03;1.93;;;16.90;77.00;17.40;96381.00;;;;5064829;28;20231;-88
2022/05/04 02:39:18;;;;;;;2.33;2.23;;;17.00;77.30;17.40;96374.00;;;;5073567;28;20230;-89
2022/05/04 02:41:48;;;;;;;2.37;2.27;;;16.90;77.30;17.40;96384.00;;;;5071880;28;20207;-89
2022/05/04 02:44:16;;;;;;;2.77;2.10;;;16.90;78.10;17.40;96367.00;;;;5071444;28;20291;-88
2022/05/04 02:46:48;;;;;;;2.53;2.43;;;16.90;77.50;17.40;96375.00;;;;5067391;28;20193;-88
2022/05/04 02:49:15;;;;;;;2.50;2.30;;;16.90;77.50;17.40;96373.00;;;;5074192;28;20251;-89
2022/05/04 02:51:42;;;;;;;2.57;2.37;;;16.90;77.50;17.40;96378.00;;;;5070510;28;20199;-87
2022/05/04 02:54:09;;;;;;;2.80;2.60;;;16.90;77.50;17.30;96373.00;;;;5067485;28;20196;-88
2022/05/04 02:56:36;;;;;;;2.30;2.20;;;16.90;77.50;17.30;96375.00;;;;5068594;28;20287;-88
2022/05/04 02:59:04;;;;;;;2.27;2.17;;;16.80;77.60;17.30;96378.00;;;;5064105;28;20234;-87
2022/05/04 03:04:17;;;;;;;2.30;2.20;;;16.80;77.70;17.20;96377.00;;;;5073471;28;20720;-88
2022/05/04 03:06:44;;;;;;;2.30;2.10;;;16.80;77.70;17.10;96369.00;;;;5068446;28;20224;-89
2022/05/04 03:09:12;;;;;;;2.37;2.17;;;16.70;77.70;17.10;96372.00;;;;5071875;28;20227;-88
2022/05/04 03:11:55;;;;;;;2.17;2.07;;;16.70;77.70;17.00;96359.00;;;;5067868;28;20215;-88
2022/05/04 03:14:23;;;;;;;2.30;2.20;;;17.50;78.20;17.00;96371.00;;;;5074075;28;20284;-87
2022/05/04 03:16:51;;;;;;;2.47;2.27;;;16.70;77.70;16.90;96374.00;;;;5073818;28;20207;-88
2022/05/04 03:19:20;;;;;;;2.20;2.10;;;16.70;77.80;16.90;96372.00;;;;5073540;28;20298;-88
2022/05/04 03:21:48;;;;;;;2.97;2.50;;;17.10;78.10;16.90;96367.00;;;;5060456;28;20212;-89
2022/05/04 03:24:15;;;;;;;2.40;2.20;;;17.30;78.10;16.90;96373.00;;;;5073768;28;20211;-89
2022/05/04 03:26:43;;;;;;;2.60;2.40;;;16.80;77.70;16.80;96366.00;;;;5073794;28;20208;-88
2022/05/04 03:29:10;;;;;;;2.67;2.30;;;16.50;77.40;16.80;96365.00;;;;5068325;28;20574;-89
2022/05/04 03:31:37;;;;;;;2.43;2.30;;;16.50;77.30;16.80;96367.00;;;;5073390;28;20196;-89
2022/05/04 03:34:06;;;;;;;2.97;2.57;;;16.50;78.00;16.70;96365.00;;;;5073811;28;20290;-88
2022/05/04 03:36:36;;;;;;;2.37;2.17;;;16.40;77.30;16.70;96359.00;;;;5072991;28;20283;-89
2022/05/04 03:39:03;;;;;;;2.57;2.37;;;16.40;77.30;16.60;96347.00;;;;5072921;28;20222;-88
2022/05/04 03:41:31;;;;;;;2.77;2.57;;;16.30;77.40;16.60;96381.00;;;;5072482;28;20275;-89
2022/05/04 03:43:58;;;;;;;2.07;1.97;;;16.20;77.50;16.60;96359.00;;;;5065906;28;20188;-90
2022/05/04 03:46:27;;;;;;;2.43;2.23;;;16.20;77.50;16.50;96371.00;;;;5072729;28;20204;-87
2022/05/04 03:48:58;;;;;;;2.20;2.10;;;16.20;77.60;16.50;96371.00;;;;5071881;28;20230;-88
2022/05/04 03:51:26;;;;;;;2.63;2.43;;;16.10;77.60;16.40;96370.00;;;;5058099;28;20193;-88
2022/05/04 03:53:55;;;;;;;2.90;2.70;;;16.50;78.80;16.40;96374.00;;;;5060255;28;20204;-88
2022/05/04 03:56:22;;;;;;;2.70;2.50;;;16.30;78.00;16.30;96365.00;;;;5069088;28;20199;-89
2022/05/04 03:58:49;;;;;;;2.57;2.37;;;16.00;77.80;16.30;96369.00;;;;5071366;28;20503;-89
2022/05/04 04:01:17;;;;;;;3.00;2.77;;;16.00;77.90;16.30;96365.00;;;;5071298;28;20292;-89
2022/05/04 04:03:44;;;;;;;2.60;2.40;;;15.90;78.00;16.30;96349.00;;;;5070231;28;20196;-89
2022/05/04 04:06:12;;;;;;;2.80;2.43;;;15.90;78.20;16.20;96368.00;;;;5061025;28;20279;-89
2022/05/04 04:08:39;;;;;;;2.90;2.70;;;16.90;78.90;16.20;96372.00;;;;5071139;28;20227;-89
2022/05/04 04:11:08;;;;;;;2.67;2.50;;;15.80;78.10;16.20;96375.00;;;;5061024;28;20308;-88
2022/05/04 04:13:35;;;;;;;2.37;2.27;;;15.80;78.10;16.20;96370.00;;;;5062040;28;20220;-88
2022/05/04 04:16:02;;;;;;;2.57;2.47;;;15.80;78.20;16.20;96356.00;;;;5072723;28;20220;-88
2022/05/04 04:18:29;;;;;;;2.53;2.33;;;15.80;78.20;16.20;96367.00;;;;5072476;28;20219;-88
2022/05/04 04:23:42;;;;;;;2.67;2.47;;;15.80;78.50;16.20;96381.00;;;;5071583;28;20744;-88
2022/05/04 04:26:14;;;;;;;2.90;2.70;;;15.80;78.60;16.20;96381.00;;;;5073814;28;20243;-88
2022/05/04 04:28:41;;;;;;;2.93;2.73;;;15.80;78.70;16.20;96378.00;;;;5072793;28;20250;-89
2022/05/04 04:31:09;;;;;;;3.90;2.93;;;15.80;78.90;16.20;96378.00;;;;5070920;28;20192;-87
2022/05/04 04:33:37;;;;;;;3.00;2.70;;;15.80;79.10;16.20;96388.00;;;;5065936;28;20223;-86
2022/05/04 04:36:05;;;;;;;3.00;2.80;;;15.80;79.90;16.20;96387.00;;;;5069925;28;20196;-86
2022/05/04 04:38:33;;;;;;;2.90;2.70;;;15.80;79.30;16.30;96383.00;;;;5069392;28;20219;-86
2022/05/04 04:41:03;;;;;;;2.93;2.73;;;15.80;79.40;16.30;96375.00;;;;5061208;28;20203;-86
2022/05/04 04:43:31;;;;;;;2.87;2.67;;;15.80;79.40;16.40;96392.00;;;;5069972;28;20206;-86
2022/05/04 04:45:59;;;;;;;3.70;3.40;;;15.90;79.50;16.40;96389.00;;;;5056642;28;20198;-87
2022/05/04 04:48:26;;;;;;;3.40;3.10;;;15.90;79.70;16.40;96396.00;;;;5065253;28;20254;-87
2022/05/04 04:50:53;;;;;;;2.73;2.53;;;15.90;79.80;16.50;96392.00;;;;5060849;28;20231;-87
2022/05/04 04:53:21;;;;;;;3.07;2.87;;;16.00;79.90;16.60;96397.00;;;;5066941;28;20211;-87
2022/05/04 04:55:48;;;;;;;3.00;2.80;;;16.00;79.80;16.60;96399.00;;;;5061575;28;20195;-87
2022/05/04 04:58:15;;;;;;;3.00;2.80;;;16.10;79.90;16.70;96404.00;;;;5070581;28;20251;-87
2022/05/04 05:00:44;;;;;;;3.27;2.80;;;16.20;80.00;16.70;96403.00;;;;5069747;28;20206;-87
2022/05/04 05:03:11;;;;;;;3.50;3.20;;;16.10;79.80;16.80;96399.00;;;;5067059;28;20198;-87
2022/05/04 05:05:42;;;;;;;3.50;3.20;;;16.30;80.00;16.80;96396.00;;;;5069898;28;20188;-87
2022/05/04 05:08:11;;;;;;;2.97;2.77;;;16.20;79.90;16.90;96395.00;;;;5061787;28;20644;-88
2022/05/04 05:10:40;;;;;;;3.83;3.53;;;16.30;80.10;17.00;96403.00;;;;5070773;28;20310;-87
2022/05/04 05:13:07;;;;;;;3.97;3.67;;;16.50;80.30;17.00;96396.00;;;;5064847;28;20210;-87
2022/05/04 05:18:22;;;;;;;3.97;3.60;;;16.40;80.30;17.20;96404.00;;;;5068702;28;20246;-87
2022/05/04 05:20:49;;;;;;;4.60;4.30;;;16.50;80.40;17.20;96408.00;;;;5069508;28;20200;-87
2022/05/04 05:23:16;;;;;;;4.70;4.30;;;16.50;80.40;17.30;96409.00;;;;5069283;28;20196;-87
2022/05/04 05:25:43;;;;;;;4.90;4.50;;;16.60;80.30;17.40;96413.00;;;;5062825;28;20208;-87
2022/05/04 05:28:10;;;;;;;4.83;4.10;;;16.70;80.20;17.50;96404.00;;;;5069166;28;20224;-87
2022/05/04 05:30:38;;;;;;;4.83;4.43;;;16.70;80.30;17.60;96399.00;;;;5068491;28;20227;-87
2022/05/04 05:33:05;;;;;;;5.67;4.50;;;16.80;80.50;17.70;96398.00;;;;5063099;28;20670;-87
2022/05/04 05:35:35;;;;;;;5.00;4.60;;;16.90;80.50;17.80;96406.00;;;;5067102;28;20226;-87
2022/05/04 05:38:02;;;;;;;4.77;4.37;;;16.90;80.60;17.90;96401.00;;;;5064803;28;20219;-87
2022/05/04 05:40:29;;;;;;;5.73;5.23;;;17.10;80.90;18.10;96408.00;;;;5068332;28;20206;-87
2022/05/04 05:42:56;;;;;;;5.30;4.80;;;17.20;80.80;18.20;96406.00;;;;5067436;28;20200;-88
2022/05/04 05:45:23;;;;;;;5.30;4.90;;;17.20;80.50;18.30;96411.00;;;;5066326;28;20211;-88
2022/05/04 05:47:50;;;;;;;5.33;4.90;;;17.50;80.50;18.50;96405.00;;;;5067522;28;20655;-87
2022/05/04 05:50:17;;;;;;;5.27;4.87;;;17.50;80.40;18.60;96416.00;;;;5062328;28;20235;-87
2022/05/04 05:52:45;;;;;;;4.67;4.37;;;17.60;80.30;18.70;96412.00;;;;5057636;28;20223;-87
2022/05/04 05:55:15;;;;;;;5.27;4.77;;;17.80;80.30;18.80;96411.00;;;;5067416;28;20202;-87
2022/05/04 05:57:42;;;;;;;5.67;5.17;;;17.80;80.00;18.90;96419.00;;;;5065043;28;20192;-87
2022/05/04 06:00:10;;;;;;;5.17;4.67;;;17.90;80.00;19.00;96419.00;;;;5064065;28;20197;-87
2022/05/04 06:02:37;;;;;;;4.20;3.90;;;18.00;80.50;19.00;96415.00;;;;5065685;28;20559;-87
2022/05/04 06:05:05;;;;;;;4.97;4.67;;;18.10;79.50;19.10;96424.00;;;;5067247;28;20196;-87
2022/05/04 06:07:32;;;;;;;4.33;4.03;;;18.10;79.00;19.10;96426.00;;;;5058310;28;20211;-87
2022/05/04 06:10:00;;;;;;;5.17;4.67;;;18.20;78.70;19.20;96417.00;;;;5058259;28;20224;-87
2022/05/04 06:12:28;;;;;;;4.60;4.30;;;18.30;79.00;19.20;96431.00;;;;5068545;28;20680;-87
2022/05/04 06:14:55;;;;;;;5.00;4.60;;;18.40;78.00;19.20;96428.00;;;;5071564;28;20228;-87
2022/05/04 06:17:22;;;;;;;4.30;4.00;;;18.40;77.90;19.30;96432.00;;;;5064119;28;20553;-88
2022/05/04 06:19:49;;;;;;;4.40;4.10;;;18.40;77.80;19.30;96439.00;;;;5067175;28;20801;-87
2022/05/04 06:22:16;;;;;;;3.40;3.03;;;18.50;77.80;19.40;96434.00;;;;5070418;28;20191;-87
2022/05/04 06:24:43;;;;;;;3.57;3.37;;;18.50;77.60;19.50;96434.00;;;;5057650;28;20196;-89
2022/05/04 06:27:12;;;;;;;3.63;3.40;;;18.60;77.70;19.50;96439.00;;;;5064373;28;20206;-86
2022/05/04 06:35:09;;;;;;;2.60;2.40;;;18.80;77.60;19.80;96439.00;;;;5068839;28;20199;-87
2022/05/04 06:37:36;;;;;;;3.30;3.03;;;18.90;77.40;19.90;96441.00;;;;5067899;28;20199;-87
2022/05/04 06:40:04;;;;;;;3.50;3.20;;;18.90;77.10;20.00;96442.00;;;;5071703;28;20200;-87
2022/05/04 06:42:33;;;;;;;2.80;2.60;;;19.00;76.80;20.10;96440.00;;;;5072759;28;20211;-88
2022/05/04 06:45:00;;;;;;;2.63;2.43;;;19.10;76.50;20.20;96434.00;;;;5070884;28;20188;-88
2022/05/04 06:47:27;;;;;;;3.00;2.80;;;19.20;76.30;20.30;96456.00;;;;5073888;28;20291;-87
2022/05/04 06:49:54;;;;;;;2.57;2.40;;;19.20;75.80;20.40;96450.00;;;;5069165;28;20323;-88
2022/05/04 06:52:24;;;;;;;2.47;2.27;;;19.90;75.90;20.50;96444.00;;;;5059412;28;20192;-87
2022/05/04 06:54:51;;;;;;;2.63;2.20;;;19.40;75.20;20.60;96456.00;;;;5064202;28;20596;-87
2022/05/04 06:57:19;;;;;;;2.57;2.30;;;19.50;75.30;20.70;96450.00;;;;5068582;28;20634;-87
2022/05/04 06:59:47;;;;;;;2.10;2.00;;;19.60;75.00;20.80;96450.00;;;;5064659;28;20319;-88
2022/05/04 07:02:15;;;;;;;2.37;2.13;;;19.80;74.80;20.90;96451.00;;;;5072556;28;20200;-87
2022/05/04 07:04:42;;;;;;;2.23;2.10;;;19.90;75.00;21.00;96460.00;;;;5065421;28;20647;-87
2022/05/04 07:07:09;;;;;;;2.77;2.57;;;20.00;74.90;21.20;96456.00;;;;5066055;28;20196;-88
2022/05/04 07:09:36;;;;;;;2.00;1.90;;;20.10;74.90;21.30;96443.00;;;;5068863;28;20694;-87
2022/05/04 07:12:07;;;;;;;2.67;2.47;;;20.20;74.80;21.40;96455.00;;;;5059872;28;20211;-87
2022/05/04 07:14:35;;;;;;;2.23;2.07;;;20.30;73.80;21.50;96454.00;;;;5063862;28;20299;-89
2022/05/04 07:17:03;;;;;;;2.00;1.90;;;20.40;74.20;21.50;96460.00;;;;5070638;28;20287;-87
2022/05/04 07:19:31;;;;;;;1.93;1.83;;;20.50;73.40;21.60;96459.00;;;;5069895;28;20216;-87
2022/05/04 07:21:58;;;;;;;1.90;1.80;;;20.60;73.30;21.60;96463.00;;;;5059482;28;20260;-88
2022/05/04 07:24:25;;;;;;;2.00;1.90;;;20.60;72.30;21.70;96461.00;;;;5070222;28;20301;-87
2022/05/04 07:26:52;;;;;;;2.10;2.00;;;20.70;71.90;21.70;96464.00;;;;5072118;28;20656;-87
2022/05/04 07:29:19;;;;;;;2.10;2.00;;;20.70;71.90;21.80;96463.00;;;;5069118;28;20284;-87
2022/05/04 07:31:46;;;;;;;2.10;2.00;;;20.80;72.30;21.90;96450.00;;;;5052684;28;20221;-87
2022/05/04 07:34:16;;;;;;;1.83;1.73;;;20.90;72.60;22.00;96465.00;;;;5067308;28;20286;-87
2022/05/04 07:36:43;;;;;;;3.07;2.10;;;21.00;72.30;22.20;96466.00;;;;5072180;28;20188;-88
2022/05/04 07:42:21;;;;;;;1.70;1.60;;;21.10;72.90;22.40;96468.00;;;;5072440;28;20258;-87
2022/05/04 07:44:45;;;;;;;1.30;1.30;;;21.50;71.80;22.80;96468.00;;;;5071700;28;20721;-88
2022/05/04 07:47:13;;;;;;;1.53;1.43;;;21.50;70.80;22.90;96475.00;;;;5069943;28;20192;-87
2022/05/04 07:49:41;;;;;;;1.57;1.47;;;21.60;70.20;23.00;96480.00;;;;5090022;22;20224;-78
2022/05/04 07:52:08;;;;;;;1.67;1.33;;;21.80;69.60;23.10;96478.00;;;;5059858;28;20224;-78
2022/05/04 07:54:35;;;;;;;1.10;1.10;;;21.90;70.00;23.20;96487.00;;;;5032774;28;20197;-81
2022/05/04 07:57:02;;;;;;;1.33;1.27;;;21.90;69.00;23.30;96479.00;;;;5039701;28;20673;-78
2022/05/04 07:59:29;;;;;;;1.30;1.27;;;22.00;68.70;23.40;96480.00;;;;5051712;28;20686;-78
2022/05/04 08:04:42;;;;;;;1.50;1.40;;;22.20;67.60;23.50;96490.00;;;;5053492;28;20209;-80
2022/05/04 08:07:09;;;;;;;1.43;1.33;;;22.30;67.60;23.60;96490.00;;;;5039842;28;20201;-80
2022/05/04 08:09:37;;;;;;;1.70;1.40;;;22.30;67.80;23.60;96493.00;;;;5042777;28;20201;-79
2022/05/04 08:12:06;;;;;;;1.43;1.40;;;22.40;67.20;23.60;96497.00;;;;5059015;28;20224;-80
2022/05/04 08:14:33;;;;;;;1.53;1.43;;;22.50;66.80;23.60;96498.00;;;;5054881;28;20251;-80
2022/05/04 08:17:00;;;;;;;1.53;1.43;;;22.50;66.60;23.70;96500.00;;;;5041983;28;20247;-80
2022/05/04 08:19:27;;;;;;;2.10;2.00;;;22.50;66.20;23.70;96503.00;;;;5045009;28;20204;-80
2022/05/04 08:21:56;;;;;;;2.00;1.80;;;22.50;65.40;23.70;96504.00;;;;5037532;28;20756;-80
2022/05/04 08:24:23;;;;;;;1.70;1.60;;;22.50;65.00;23.70;96503.00;;;;5052736;28;20223;-81
2022/05/04 08:26:50;;;;;;;2.30;1.70;;;22.50;65.30;23.70;96511.00;;;;5057459;28;20199;-80
2022/05/04 08:29:18;;;;;;;2.13;1.93;;;22.60;65.30;23.70;96507.00;;;;5047911;28;20193;-81
2022/05/04 08:31:45;;;;;;;2.57;2.13;;;22.60;65.30;23.80;96505.00;;;;5037625;28;20596;-80
2022/05/04 08:34:12;;;;;;;3.00;2.20;;;22.60;65.30;23.80;96507.00;;;;5050754;28;20203;-80
2022/05/04 08:36:39;;;;;;;2.17;2.07;;;22.60;65.00;24.00;96513.00;;;;5040791;28;20200;-79
2022/05/04 08:39:08;;;;;;;2.50;2.30;;;22.70;65.70;24.10;96511.00;;;;5050261;28;20197;-79
2022/05/04 08:41:38;;;;;;;2.50;2.30;;;22.80;65.60;24.30;96509.00;;;;5044845;28;21034;-80
2022/05/04 08:44:08;;;;;;;3.67;2.30;;;22.90;65.80;24.50;96511.00;;;;5048651;28;20659;-80
2022/05/04 08:46:38;;;;;;;1.93;1.83;;;23.00;66.10;24.80;96514.00;;;;5038365;28;20212;-80
2022/05/04 08:49:06;;;;;;;1.87;1.77;;;23.20;65.60;25.10;96514.00;;;;5055652;28;20235;-80
2022/05/04 08:51:37;;;;;;;2.03;1.93;;;23.40;65.00;25.30;96520.00;;;;5051553;28;20223;-80
2022/05/04 08:54:07;;;;;;;1.70;1.60;;;23.60;63.30;25.60;96520.00;;;;5056971;28;20207;-80
2022/05/04 08:56:35;;;;;;;1.93;1.83;;;23.80;63.60;25.80;96516.00;;;;5038678;28;20595;-80
2022/05/04 08:59:03;;;;;;;2.40;2.20;;;24.10;63.80;26.00;96515.00;;;;5036301;28;20203;-80
2022/05/04 09:01:32;;;;;;;1.90;1.80;;;24.30;63.50;26.20;96517.00;;;;5037335;28;20217;-80
2022/05/04 09:03:59;;;;;;;1.00;1.00;;;24.40;61.90;26.30;96515.00;;;;5049170;28;20201;-79
2022/05/04 09:06:28;;;;;;;1.40;1.30;;;24.60;60.50;26.40;96510.00;;;;5053447;28;20193;-80
2022/05/04 09:08:58;;;;;;;1.90;1.70;;;24.70;59.70;26.50;96510.00;;;;5045404;28;20291;-79
2022/05/04 09:11:26;;;;;;;2.27;2.17;;;24.90;59.50;26.50;96513.00;;;;5038152;28;20695;-80
2022/05/04 09:13:54;;;;;;;2.40;2.30;;;25.00;59.60;26.60;96513.00;;;;5045535;28;20193;-80
2022/05/04 09:16:30;;;;;;;2.00;1.80;;;25.10;59.80;26.70;96508.00;;;;5057553;28;20212;-80
2022/05/04 09:19:01;;;;;;;2.40;2.20;;;25.30;59.20;26.90;96510.00;;;;5043131;28;20196;-80
2022/05/04 09:21:28;;;;;;;1.77;1.67;;;25.50;59.50;27.10;96507.00;;;;5048144;28;20216;-79
2022/05/04 09:23:55;;;;;;;2.20;2.10;;;25.80;58.90;27.30;96505.00;;;;5058534;28;20205;-80
2022/05/04 09:26:23;;;;;;;1.90;1.80;;;26.10;58.50;27.50;96503.00;;;;5060644;28;20310;-80
2022/05/04 09:28:57;;;;;;;2.03;1.83;;;26.40;58.40;27.80;96503.00;;;;5041124;28;20196;-79
2022/05/04 09:31:26;;;;;;;1.90;1.80;;;26.80;58.20;28.10;96506.00;;;;5041344;28;20256;-79
2022/05/04 09:33:55;;;;;;;2.13;2.03;;;27.10;58.70;28.40;96496.00;;;;5058453;28;20199;-80
2022/05/04 09:36:34;;;;;;;1.92;1.65;;;27.60;57.80;28.70;96505.00;;;;5067711;28;20183;-79
2022/05/04 09:45:09;;;;;;;1.30;1.30;;;29.00;54.60;29.70;96506.00;;;;5043571;28;20243;-79
2022/05/04 09:47:39;;;;;;;1.60;1.50;;;29.50;54.00;30.00;96499.00;;;;5049848;28;20196;-80
2022/05/04 09:50:07;;;;;;;1.65;1.55;;;29.90;55.60;30.20;96497.00;;;;5064590;28;20417;-80
2022/05/04 09:52:43;;;;;;;1.50;1.40;;;30.30;55.00;30.50;96499.00;;;;5054301;28;20690;-80
2022/05/04 09:55:16;;;;;;;1.50;1.40;;;30.60;52.10;30.70;96500.00;;;;5060145;28;20196;-79
2022/05/04 09:57:45;;;;;;;2.45;1.80;;;31.00;51.60;30.90;96502.00;;;;5058250;28;20609;-80
2022/05/04 10:00:17;;;;;;;1.33;1.33;;;31.30;52.50;31.00;96501.00;;;;5055743;28;20200;-79
2022/05/04 10:02:44;;;;;;;1.23;1.20;;;31.50;52.00;31.20;96506.00;;;;5049776;28;20220;-80
2022/05/04 10:05:12;;;;;;;1.42;1.33;;;31.80;51.40;31.30;96499.00;;;;5061875;28;20208;-82
2022/05/04 10:07:41;;;;;;;1.05;1.05;;;32.00;51.20;31.40;96492.00;;;;5054865;28;20186;-80
2022/05/04 10:10:10;;;;;;;1.30;1.30;;;32.20;50.80;31.50;96490.00;;;;5050541;28;20216;-82
2022/05/04 10:12:41;;;;;;;1.30;1.20;;;32.40;50.30;31.60;96485.00;;;;5056683;28;20702;-79
2022/05/04 10:15:10;;;;;;;1.10;1.10;;;32.60;49.60;31.70;96476.00;;;;5059944;28;20209;-81
2022/05/04 10:17:47;;;;;;;1.98;1.23;;;32.70;48.20;31.70;96465.00;;;;5043547;28;20235;-80
2022/05/04 10:20:20;;;;;;;2.58;1.40;;;32.80;48.00;31.80;96473.00;;;;5041999;28;20192;-80
2022/05/04 10:22:54;;;;;;;1.10;1.10;;;32.90;47.20;31.80;96475.00;;;;5053958;28;20319;-80
2022/05/04 10:25:25;;;;;;;1.52;1.42;;;32.90;46.20;31.80;96475.00;;;;5051988;28;20596;-80
2022/05/04 10:27:52;;;;;;;1.95;1.85;;;33.00;47.70;31.80;96467.00;;;;5047033;28;20200;-81
2022/05/04 10:30:34;;;;;;;1.60;1.50;;;32.90;46.40;31.70;96465.00;;;;5046958;28;20185;-80
2022/05/04 10:33:06;;;;;;;1.40;1.30;;;32.80;46.10;31.50;96458.00;;;;5047885;28;20217;-80
2022/05/04 10:35:37;;;;;;;1.52;1.42;;;32.60;46.30;31.30;96465.00;;;;5048432;28;20193;-81
2022/05/04 10:38:13;;;;;;;1.38;1.27;;;32.30;46.10;31.00;96458.00;;;;5048510;28;20193;-80
2022/05/04 10:40:45;;;;;;;1.50;1.40;;;32.00;45.70;30.70;96453.00;;;;5047877;28;20193;-80
2022/05/04 10:43:16;;;;;;;1.92;1.70;;;31.60;45.70;30.40;96451.00;;;;5048535;28;20231;-79
2022/05/04 10:45:45;;;;;;;1.90;1.80;;;31.10;45.10;30.00;96446.00;;;;5048092;28;20613;-81
2022/05/04 10:48:29;;;;;;;1.80;1.70;;;30.60;45.10;29.50;96443.00;;;;5047536;28;20198;-80
2022/05/04 10:51:05;;;;;;;1.75;1.63;;;30.10;45.00;29.10;96440.00;;;;5047018;28;20218;-81
2022/05/04 10:53:45;;;;;;;1.60;1.50;;;29.60;45.30;28.80;96436.00;;;;5048391;28;20712;-80
2022/05/04 10:56:16;;;;;;;1.80;1.70;;;29.00;46.00;28.50;96432.00;;;;5047397;28;20266;-80
2022/05/04 10:58:47;;;;;;;3.33;1.70;;;28.60;47.10;28.20;96437.00;;;;5046864;28;20312;-80
2022/05/04 11:01:20;;;;;;;1.47;1.37;;;28.20;47.70;27.90;96437.00;;;;5047033;28;20204;-79
2022/05/04 11:04:05;;;;;;;1.93;1.83;;;27.80;48.10;27.70;96434.00;;;;5045923;28;20194;-82
2022/05/04 11:06:34;;;;;;;1.87;1.77;;;27.50;47.30;27.50;96426.00;;;;5044286;28;20193;-81
2022/05/04 11:09:08;;;;;;;2.03;1.90;;;27.10;48.10;27.20;96424.00;;;;5037016;28;20203;-80
2022/05/04 11:11:37;;;;;;;1.97;1.87;;;26.80;48.00;27.10;96427.00;;;;5045666;28;20697;-80
2022/05/04 11:14:06;;;;;;;2.10;2.00;;;26.50;48.50;26.90;96418.00;;;;5045766;28;20228;-80
2022/05/04 11:16:34;;;;;;;1.70;1.60;;;26.30;48.90;26.70;96421.00;;;;5047367;28;20281;-80
2022/05/04 11:19:05;;;;;;;1.93;1.83;;;26.10;49.60;26.60;96412.00;;;;5047573;28;20637;-79
2022/05/04 11:21:34;;;;;;;2.23;2.03;;;26.00;49.80;26.50;96411.00;;;;5044820;28;20252;-80
2022/05/04 11:24:04;;;;;;;1.70;1.57;;;25.80;50.90;26.50;96411.00;;;;5047214;28;20195;-80
2022/05/04 11:26:36;;;;;;;1.67;1.57;;;25.80;51.70;26.40;96405.00;;;;5051232;28;20201;-80
2022/05/04 11:29:09;;;;;;;1.63;1.53;;;25.70;51.30;26.30;96405.00;;;;5056814;28;20260;-79
2022/05/04 11:31:37;;;;;;;1.80;1.70;;;25.60;51.00;26.20;96414.00;;;;5050667;28;20229;-80